(°C)
15°
15°
15°
14°
14°
13°
12°
(°C)
12°
13°
13°
12°
11°
11°
10°
Ν
Ν
ΝΝΑ
ΝΑ
ΑΝΑ
Α
Α
(χλμ / ω)
11-19
10-19
9-20
8-17
8-15
8-12
8-11
(χιλιοστά)
0
0
0
0
0
0
0
(%)
0
0
1
8
2
16
17

Ανύψωση ήλιου

/ 33.9°
sun-icon
UV 2
06:29
18:31
Φθίνων αμφίκυρτος (φάση σελήνης) (242°)
20:27
12:30

METAR για 53.5°Β 50.15°Α (UWWW)

Χρόνος Συνθήκες Θερμοκρασία/
Σημείο δρόσου
Άνεμος Ορατότητα Καιρός Νέφη Πίεση Αλλαγή Ανεπεξέργαστο
VFR 15°C / 8°C 180º variable 150º to 210º 8kt >10km - Scattered Clouds 3300ft 1007 No Significant change UWWW 260900Z 18004MPS 150V210 9999 SCT033 15/08 Q1007 R15/CLRD60 NOSIG RMK QFE743/0991
VFR 15°C / 7°C 190º 8kt >10km - Scattered Clouds 3300ft 1007 No Significant change UWWW 260830Z 19004MPS 9999 SCT033 15/07 Q1007 R15/CLRD60 NOSIG RMK QFE743/0991
VFR 15°C / 7°C 170º 8kt >10km - Clouds and Visibility OK 1007 No Significant change UWWW 260800Z 17004MPS CAVOK 15/07 Q1007 R15/CLRD60 NOSIG RMK QFE744/0992
VFR 15°C / 7°C 180º variable 150º to 210º 8kt >10km - Clouds and Visibility OK 1007 No Significant change UWWW 260730Z 18004MPS 150V210 CAVOK 15/07 Q1007 R15/CLRD60 NOSIG RMK QFE744/0992
VFR 14°C / 7°C 150º variable 110º to 210º 6kt >10km - Clouds and Visibility OK 1007 No Significant change UWWW 260700Z 15003MPS 110V210 CAVOK 14/07 Q1007 R15/CLRD60 NOSIG RMK QFE744/0992
VFR 13°C / 8°C 140º variable 110º to 170º 4kt >10km - Clouds and Visibility OK 1007 No Significant change UWWW 260630Z 14002MPS 110V170 CAVOK 13/08 Q1007 R15/CLRD60 NOSIG RMK QFE744/0992
VFR 12°C / 8°C 160º variable 110º to 220º 4kt >10km - Clouds and Visibility OK 1007 No Significant change UWWW 260600Z 16002MPS 110V220 CAVOK 12/08 Q1007 R15/CLRD60 NOSIG RMK QFE744/0992
VFR 10°C / 7°C 160º variable 130º to 190º 4kt >10km - Clouds and Visibility OK 1007 No Significant change UWWW 260530Z 16002MPS 130V190 CAVOK 10/07 Q1007 R15/CLRD60 NOSIG RMK QFE744/0992
VFR 9°C / 7°C variable 2kt >10km - Clouds and Visibility OK 1008 No Significant change UWWW 260500Z VRB01MPS CAVOK 09/07 Q1008 R15/CLRD60 NOSIG RMK QFE744/0993
VFR 8°C / 7°C 180º 4kt >10km - Clouds and Visibility OK 1008 No Significant change UWWW 260430Z 18002MPS CAVOK 08/07 Q1008 R15/CLRD60 NOSIG RMK QFE744/0993
VFR 8°C / 6°C 150º variable 120º to 180º 4kt >10km - Clouds and Visibility OK 1008 No Significant change UWWW 260400Z 15002MPS 120V180 CAVOK 08/06 Q1008 R15/CLRD60 NOSIG RMK QFE744/0993
VFR 6°C / 5°C 170º 2kt >10km - Clouds and Visibility OK 1008 No Significant change UWWW 260330Z 17001MPS CAVOK 06/05 Q1008 R15/CLRD60 NOSIG RMK QFE745/0993
VFR 5°C / 3°C 230º 2kt >10km - Clouds and Visibility OK 1008 No Significant change UWWW 260300Z 23001MPS CAVOK 05/03 Q1008 R15/CLRD60 NOSIG RMK QFE745/0993
VFR 5°C / 4°C 250º 4kt >10km - Clouds and Visibility OK 1008 No Significant change UWWW 260230Z 25002MPS CAVOK 05/04 Q1008 R15/CLRD60 NOSIG RMK QFE745/0993
IFR 4°C / 3°C 240º 2kt 3800m partial Fog Vertical Visibility of 0ft. 1009 No Significant change UWWW 260200Z 24001MPS 3800 0500E PRFG NSC 04/03 Q1009 R15/CLRD60 NOSIG RMK QFE745/0993
LIFR 6°C / 5°C variable 2kt 260m partial Fog Vertical Visibility of 0ft. 1009 Temporary: Visibility 0100. Fog . VV002 RMK QFE745/0993 UWWW 260130Z VRB01MPS 0250 0200SE PRFG NSC 06/05 Q1009 R15/CLRD60 TEMPO 0100 FG VV002 RMK QFE745/0993
MVFR 5°C / 3°C 270º 4kt 7000m partial Fog Vertical Visibility of 0ft. 1009 Temporary: Visibility 0300. Fog . VV002 RMK QFE745/0994 UWWW 260100Z 27002MPS 7000 0350NE PRFG NSC 05/03 Q1009 R15/CLRD60 TEMPO 0300 FG VV002 RMK QFE745/0994
VFR 7°C / 5°C 270º 6kt 9000m Mist Vertical Visibility of 0ft. 1009 Temporary: Visibility 2000. Mist . RMK QFE745/0994 UWWW 260030Z 27003MPS 9000 1900NE BR NSC 07/05 Q1009 R15/CLRD60 TEMPO 2000 BR RMK QFE745/0994
VFR 7°C / 5°C 280º 4kt >10km - Clouds and Visibility OK 1009 No Significant change UWWW 260000Z 28002MPS CAVOK 07/05 Q1009 R33/CLRD60 NOSIG RMK QFE746/0995
VFR 7°C / 5°C 310º 6kt >10km - Clouds and Visibility OK 1009 No Significant change UWWW 252330Z 31003MPS CAVOK 07/05 Q1009 R33/CLRD60 NOSIG RMK QFE746/0995
VFR 7°C / 5°C 270º variable 240º to 300º 4kt >10km - Clouds and Visibility OK 1009 No Significant change UWWW 252300Z 27002MPS 240V300 CAVOK 07/05 Q1009 R33/CLRD60 NOSIG RMK QFE746/0995
VFR 7°C / 5°C 290º 4kt >10km - Clouds and Visibility OK 1009 No Significant change UWWW 252230Z 29002MPS CAVOK 07/05 Q1009 R33/CLRD60 NOSIG RMK QFE746/0995
VFR 8°C / 6°C 280º 6kt >10km - Clouds and Visibility OK 1009 No Significant change UWWW 252200Z 28003MPS CAVOK 08/06 Q1009 R33/CLRD60 NOSIG RMK QFE746/0995
VFR 7°C / 6°C 280º 6kt >10km - Clouds and Visibility OK 1009 No Significant change UWWW 252130Z 28003MPS CAVOK 07/06 Q1009 R33/CLRD60 NOSIG RMK QFE746/0995

VFR

15°C / 8°C

[Περισσότερο]
Άνεμος 180º variable 150º to 210º 8kt
Ορατότητα >10km
Καιρός -
Νέφη Scattered Clouds 3300ft
Πίεση 1007
Αλλαγή No Significant change
Ανεπεξέργαστο UWWW 260900Z 18004MPS 150V210 9999 SCT033 15/08 Q1007 R15/CLRD60 NOSIG RMK QFE743/0991

VFR

15°C / 7°C

[Περισσότερο]
Άνεμος 190º 8kt
Ορατότητα >10km
Καιρός -
Νέφη Scattered Clouds 3300ft
Πίεση 1007
Αλλαγή No Significant change
Ανεπεξέργαστο UWWW 260830Z 19004MPS 9999 SCT033 15/07 Q1007 R15/CLRD60 NOSIG RMK QFE743/0991

VFR

15°C / 7°C

[Περισσότερο]
Άνεμος 170º 8kt
Ορατότητα >10km
Καιρός -
Νέφη Clouds and Visibility OK
Πίεση 1007
Αλλαγή No Significant change
Ανεπεξέργαστο UWWW 260800Z 17004MPS CAVOK 15/07 Q1007 R15/CLRD60 NOSIG RMK QFE744/0992

VFR

15°C / 7°C

[Περισσότερο]
Άνεμος 180º variable 150º to 210º 8kt
Ορατότητα >10km
Καιρός -
Νέφη Clouds and Visibility OK
Πίεση 1007
Αλλαγή No Significant change
Ανεπεξέργαστο UWWW 260730Z 18004MPS 150V210 CAVOK 15/07 Q1007 R15/CLRD60 NOSIG RMK QFE744/0992

VFR

14°C / 7°C

[Περισσότερο]
Άνεμος 150º variable 110º to 210º 6kt
Ορατότητα >10km
Καιρός -
Νέφη Clouds and Visibility OK
Πίεση 1007
Αλλαγή No Significant change
Ανεπεξέργαστο UWWW 260700Z 15003MPS 110V210 CAVOK 14/07 Q1007 R15/CLRD60 NOSIG RMK QFE744/0992

VFR

13°C / 8°C

[Περισσότερο]
Άνεμος 140º variable 110º to 170º 4kt
Ορατότητα >10km
Καιρός -
Νέφη Clouds and Visibility OK
Πίεση 1007
Αλλαγή No Significant change
Ανεπεξέργαστο UWWW 260630Z 14002MPS 110V170 CAVOK 13/08 Q1007 R15/CLRD60 NOSIG RMK QFE744/0992

VFR

12°C / 8°C

[Περισσότερο]
Άνεμος 160º variable 110º to 220º 4kt
Ορατότητα >10km
Καιρός -
Νέφη Clouds and Visibility OK
Πίεση 1007
Αλλαγή No Significant change
Ανεπεξέργαστο UWWW 260600Z 16002MPS 110V220 CAVOK 12/08 Q1007 R15/CLRD60 NOSIG RMK QFE744/0992

VFR

10°C / 7°C

[Περισσότερο]
Άνεμος 160º variable 130º to 190º 4kt
Ορατότητα >10km
Καιρός -
Νέφη Clouds and Visibility OK
Πίεση 1007
Αλλαγή No Significant change
Ανεπεξέργαστο UWWW 260530Z 16002MPS 130V190 CAVOK 10/07 Q1007 R15/CLRD60 NOSIG RMK QFE744/0992

VFR

9°C / 7°C

[Περισσότερο]
Άνεμος variable 2kt
Ορατότητα >10km
Καιρός -
Νέφη Clouds and Visibility OK
Πίεση 1008
Αλλαγή No Significant change
Ανεπεξέργαστο UWWW 260500Z VRB01MPS CAVOK 09/07 Q1008 R15/CLRD60 NOSIG RMK QFE744/0993

VFR

8°C / 7°C

[Περισσότερο]
Άνεμος 180º 4kt
Ορατότητα >10km
Καιρός -
Νέφη Clouds and Visibility OK
Πίεση 1008
Αλλαγή No Significant change
Ανεπεξέργαστο UWWW 260430Z 18002MPS CAVOK 08/07 Q1008 R15/CLRD60 NOSIG RMK QFE744/0993

VFR

8°C / 6°C

[Περισσότερο]
Άνεμος 150º variable 120º to 180º 4kt
Ορατότητα >10km
Καιρός -
Νέφη Clouds and Visibility OK
Πίεση 1008
Αλλαγή No Significant change
Ανεπεξέργαστο UWWW 260400Z 15002MPS 120V180 CAVOK 08/06 Q1008 R15/CLRD60 NOSIG RMK QFE744/0993

VFR

6°C / 5°C

[Περισσότερο]
Άνεμος 170º 2kt
Ορατότητα >10km
Καιρός -
Νέφη Clouds and Visibility OK
Πίεση 1008
Αλλαγή No Significant change
Ανεπεξέργαστο UWWW 260330Z 17001MPS CAVOK 06/05 Q1008 R15/CLRD60 NOSIG RMK QFE745/0993

VFR

5°C / 3°C

[Περισσότερο]
Άνεμος 230º 2kt
Ορατότητα >10km
Καιρός -
Νέφη Clouds and Visibility OK
Πίεση 1008
Αλλαγή No Significant change
Ανεπεξέργαστο UWWW 260300Z 23001MPS CAVOK 05/03 Q1008 R15/CLRD60 NOSIG RMK QFE745/0993

VFR

5°C / 4°C

[Περισσότερο]
Άνεμος 250º 4kt
Ορατότητα >10km
Καιρός -
Νέφη Clouds and Visibility OK
Πίεση 1008
Αλλαγή No Significant change
Ανεπεξέργαστο UWWW 260230Z 25002MPS CAVOK 05/04 Q1008 R15/CLRD60 NOSIG RMK QFE745/0993

IFR

4°C / 3°C

[Περισσότερο]
Άνεμος 240º 2kt
Ορατότητα 3800m
Καιρός partial Fog
Νέφη Vertical Visibility of 0ft.
Πίεση 1009
Αλλαγή No Significant change
Ανεπεξέργαστο UWWW 260200Z 24001MPS 3800 0500E PRFG NSC 04/03 Q1009 R15/CLRD60 NOSIG RMK QFE745/0993

LIFR

6°C / 5°C

[Περισσότερο]
Άνεμος variable 2kt
Ορατότητα 260m
Καιρός partial Fog
Νέφη Vertical Visibility of 0ft.
Πίεση 1009
Αλλαγή Temporary: Visibility 0100. Fog . VV002 RMK QFE745/0993
Ανεπεξέργαστο UWWW 260130Z VRB01MPS 0250 0200SE PRFG NSC 06/05 Q1009 R15/CLRD60 TEMPO 0100 FG VV002 RMK QFE745/0993

MVFR

5°C / 3°C

[Περισσότερο]
Άνεμος 270º 4kt
Ορατότητα 7000m
Καιρός partial Fog
Νέφη Vertical Visibility of 0ft.
Πίεση 1009
Αλλαγή Temporary: Visibility 0300. Fog . VV002 RMK QFE745/0994
Ανεπεξέργαστο UWWW 260100Z 27002MPS 7000 0350NE PRFG NSC 05/03 Q1009 R15/CLRD60 TEMPO 0300 FG VV002 RMK QFE745/0994

VFR

7°C / 5°C

[Περισσότερο]
Άνεμος 270º 6kt
Ορατότητα 9000m
Καιρός Mist
Νέφη Vertical Visibility of 0ft.
Πίεση 1009
Αλλαγή Temporary: Visibility 2000. Mist . RMK QFE745/0994
Ανεπεξέργαστο UWWW 260030Z 27003MPS 9000 1900NE BR NSC 07/05 Q1009 R15/CLRD60 TEMPO 2000 BR RMK QFE745/0994

VFR

7°C / 5°C

[Περισσότερο]
Άνεμος 280º 4kt
Ορατότητα >10km
Καιρός -
Νέφη Clouds and Visibility OK
Πίεση 1009
Αλλαγή No Significant change
Ανεπεξέργαστο UWWW 260000Z 28002MPS CAVOK 07/05 Q1009 R33/CLRD60 NOSIG RMK QFE746/0995

VFR

7°C / 5°C

[Περισσότερο]
Άνεμος 310º 6kt
Ορατότητα >10km
Καιρός -
Νέφη Clouds and Visibility OK
Πίεση 1009
Αλλαγή No Significant change
Ανεπεξέργαστο UWWW 252330Z 31003MPS CAVOK 07/05 Q1009 R33/CLRD60 NOSIG RMK QFE746/0995

VFR

7°C / 5°C

[Περισσότερο]
Άνεμος 270º variable 240º to 300º 4kt
Ορατότητα >10km
Καιρός -
Νέφη Clouds and Visibility OK
Πίεση 1009
Αλλαγή No Significant change
Ανεπεξέργαστο UWWW 252300Z 27002MPS 240V300 CAVOK 07/05 Q1009 R33/CLRD60 NOSIG RMK QFE746/0995

VFR

7°C / 5°C

[Περισσότερο]
Άνεμος 290º 4kt
Ορατότητα >10km
Καιρός -
Νέφη Clouds and Visibility OK
Πίεση 1009
Αλλαγή No Significant change
Ανεπεξέργαστο UWWW 252230Z 29002MPS CAVOK 07/05 Q1009 R33/CLRD60 NOSIG RMK QFE746/0995

VFR

8°C / 6°C

[Περισσότερο]
Άνεμος 280º 6kt
Ορατότητα >10km
Καιρός -
Νέφη Clouds and Visibility OK
Πίεση 1009
Αλλαγή No Significant change
Ανεπεξέργαστο UWWW 252200Z 28003MPS CAVOK 08/06 Q1009 R33/CLRD60 NOSIG RMK QFE746/0995

VFR

7°C / 6°C

[Περισσότερο]
Άνεμος 280º 6kt
Ορατότητα >10km
Καιρός -
Νέφη Clouds and Visibility OK
Πίεση 1009
Αλλαγή No Significant change
Ανεπεξέργαστο UWWW 252130Z 28003MPS CAVOK 07/06 Q1009 R33/CLRD60 NOSIG RMK QFE746/0995

TAF για 53.5°Β 50.15°Α (UWWW)

From till


Maximum Temperature 14ºC on . Minimum Temperature 8ºC on .
From till Wind 170º 6kt. Gust 17kt. Visibility 6000m. Broken Clouds 1600ft.
Temporarly from till Light Showers Rain . Broken Clouds 1600ft.
Becoming from till Wind 60º 6kt. Gust 17kt. Visibility 6000m. Broken Clouds 1600ft.
Temporarly from till Visibility 2000m. Showers Rain Mist . Broken Clouds 500ft. Overcast 1100ft.

Ανεπεξέργαστο: TAF UWWW 260752Z 2609/2709 17003G09MPS 6000 BKN016 TX14/2610Z TN08/2703Z TEMPO 2612/2617 -SHRA BKN016CB BECMG 2617/2618 06003G09MPS TEMPO 2618/2709 2000 SHRA BR BKN005 OVC011CB

Τρέχουσες εικόνες δορυφόρου και βροχής για 53.5°Β 50.15°Α

Η ένδειξη τοποθεσίας τοποθετείται στο 53.5°Β 50.15°Α. [Περισσότερο]

Οι δορυφορικές εικόνες σε πραγματικό χρόνο συνδυάζουν ορατό φως κατά τη διάρκεια της ημέρας με υπέρυθρη ακτινοβολία κατά τη διάρκεια της νύχτας. Κατά τη διάρκεια της νύχτας, η εικόνα δεν είναι σκοτεινή μιας και η υπέρυθρη ακτινοβολία μπορεί να εντοπίσει τις διαφορές στη θερμοκρασία. Δυστυχώς, είναι δύσκολο να ξεχωρίσουν οι χαμηλές νεφώσεις και η ομίχλη από τις θερμοκρασίες εδάφους και έτσι μπορεί να είναι σχετικά αόρατα κατά τη διάρκεια της νύχτας. Οι εικόνες από τον δορυφόρο Meteosat για την Ευρώπη ενημερώνονται σε πραγματικό χρόνο κάθε 5 λεπτά. Οι εικόνες από τους δορυφόρους GOES-16/GOES-17 (Βόρεια & Λατινική Αμερική) και Himawari (Ασία) ενημερώνονται κάθε 10 λεπτά.

Πνευματική ιδιοκτησία 2021 EUMETSAT / meteoblue. / Πνευματική ιδιοκτησία 2021 meteoblue

Ραντάρ και πρόγνωση υετού μικρής δειάρκειας για 53.5°Β 50.15°Α

Ψιλοβρέχει
Φως
Μέτρια
Βαριά
Πολύ βαρύ
Χαλάζι

Ο δείκτης θέσης τοποθετείται στο 53.5°Β 50.15°Α. Αυτή η κινούμενη εικόνα δείχνει την ραντάρ βροχόπτωσης για την τελευταία ώρα, καθώς και 1πρόγνωση h. Το ψιλόβροχο ή το ελαφρύ χιόνι μπορεί να είναι αόρατο για το ραντάρ. Η ένταση της βροχόπτωσης είναι χρωματικά κωδικοποιημένη και κυμαίνεται από γαλάζιο έως πορτοκαλί.